Taos, NM

7:30 PM MDT on March 27, 2015 (GMT -0600)
Las Vegas Municipal | | Change Station
CLOSE
Current Station
Airport
Location: Las Vegas,
Elevation: 6877 ft
Nearby Weather Stations

Elev 6877 ft 35.65 °N, 105.14 °W | Updated 37 minutes ago

Mostly Cloudy
Mostly Cloudy
63 °F
Feels Like 63 °F
N
8
Wind Variable Wind from NW

Today
High -- | Low -- °F
--% Chance of Precip.
Yesterday
High -- | Low -- °F
Precip. -- in
6:55 AM 7:20 PM
First Quarter, 57% visible
Pressure 29.98 in
Visibility 10.0 miles
Clouds Clear
Dew Point 15 °F
Humidity 16%
Rainfall 0.00 in
Snow Depth Not available.
UV 0 out of 12
Pollen 11.00 out of 12
Air Quality Not available.
Flu Activity Not available.
METAR KLVS 280053Z AUTO 32007KT 10SM CLR 17/M09 A3016 RMK AO2 SLP152 T01721094

More Conditions Fewer Conditions

Pressure 29.98 in
Visibility 10.0 miles
Clouds Clear
Dew Point 15 °F
Humidity 16%
Rainfall 0.00 in
Snow Depth Not available.
UV 0 out of 12
Pollen 11.00 out of 12
Air Quality Not available.
Flu Activity Not available.
METAR KLVS 280053Z AUTO 32007KT 10SM CLR 17/M09 A3016 RMK AO2 SLP152 T01721094

More Conditions Fewer Conditions

Nowcast | as of 6:10 PM MDT on March 27, 2015

Through 8 PM MDT...a few showers will move southeast across portions of the northern mountains...northeast Highlands and plains near the Colorado border. Very little to no measurable rainfall is expected ...But strong wind gusts to near 50 mph are possible in the vicinity of these showers.

×

10-Day Weather Forecast

Almanac

Astronomy

Mar. 27, 2015 Rise Set
Actual Time
Civil Twilight
Nautical Twilight
Astronomical Twilight
Moon
Length of Visible Light
Length of Day
Tomorrow will be .
, % of the Moon is Illuminated

Today's Extremes

State Highs State Lows

Community

WunderPhotos

Upload Photos

1,808,910 photos uploaded!

WunderBlogs® & News

Nearby

Air Quality

  Air Quality AQ Index Pollutant
Not available.

Snow Depth

Station Depth Elevation

Earthquake Activity

City Distance Mag. Time & Date
Minimum magnitude displayed is 2.5.

Coastal Water Temperatures

Place Temperature

Stations

Nearby Weather Stations

Station Location Temp. Windchill Dew Point Humidity Wind Precip. Elev Updated Type